Airfield :
LOGIN :

Register | Disclaimer

   EN    FR    IT 

 










Legend :    VFR   Marginal VFR   IFR   Intensive IFR   Very Intensive IFR
Visi :
Ceiling :
>= 8 km
>= 3000ft
5 to 8 km
1000 to 3000 ft
1500m to 5 km
500 to 1000 ft
800 to 1500m
200 to 500 ft
< 800m
< 200 ft
Symbols :   Thunderstorms  Fog  Heavy snow  Heavy precipitations  Wind > 20 kt
SIGMETs :     Misc.  Thunderstorms  Icing  Turbulence  Mountain Waves  Volcanic Ashes






- Airport Elevation : 49 ft
- IATA code : AOI


LIPY - Ancona Falconara

CURRENT METAR :
  • 192150Z AUTO 17003KT 9999 NCD 23/16 Q1014

EXPIRED METARs :
  • 192120Z AUTO 18003KT 9999 NCD 23/17 Q1014
  • 192050Z AUTO 13003KT 9999 NCD 24/16 Q1014
  • 192020Z AUTO 17003KT 9999 NCD 24/17 Q1014
  • 191950Z AUTO 16003KT 9999 NCD 24/17 Q1014
  • 191920Z AUTO 16003KT 9999 NCD 25/16 Q1014

TAF TAF LIPY
Valid from the 19 at 18:00 until the 20 at 18:00 UTC


191700Z 1918/2018 VRB04KT CAVOK
BECMG 2008/2010 04010KT
BECMG 2011/2013 12010KT
BECMG 2016/2018 VRB05KT



MET'MAP, your aeronautical weather chart ! - Copyright ORBIFLY December 2007 - Disclaimer

ORBIFLY MET'MAP TEAM :

Programming & Development : Alexandra Zaïnal
Concept & original design : Baudouin d'Aumeries
Assistance for programming : Marc-Olivier Méhu
Technical & hardware support : Manuel Goepfert

Contact : metmap@orbifly.com




SOURCES & CREDITS :

   NOAA